Time;durP1;ratioP1;P1;durP2;ratioP2;P2;SDS_P1;SDS_P2;PMS_P1;PMS_P2;Temp;Humidity;BMP_temperature;BMP_pressure;BME280_temperature;BME280_humidity;BME280_pressure;Samples;Min_cycle;Max_cycle;Signal;HPM_P1;HPM_P2
2024/04/09 00:00:42;;;;;;;12.30;3.10;;;;;;;8.18;100.00;98262.44;5452079;26;19995;-96
2024/04/09 00:03:08;;;;;;;12.63;1.70;;;;;;;8.05;100.00;98250.63;5452135;26;20003;-95
2024/04/09 00:05:39;;;;;;;10.20;1.67;;;;;;;8.01;100.00;98243.28;5452163;26;20450;-95
2024/04/09 00:08:07;;;;;;;13.73;2.17;;;;;;;8.02;100.00;98240.59;5451904;26;20009;-94
2024/04/09 00:10:37;;;;;;;7.90;1.30;;;;;;;8.14;100.00;98251.59;5451890;26;19995;-95
2024/04/09 00:13:06;;;;;;;14.45;1.50;;;;;;;8.12;100.00;98251.75;5451966;26;20460;-95
2024/04/09 00:15:33;;;;;;;18.23;1.83;;;;;;;8.18;100.00;98249.59;5451825;26;19991;-96
2024/04/09 00:18:13;;;;;;;7.57;1.52;;;;;;;8.04;100.00;98248.97;5452120;26;19998;-96
2024/04/09 00:20:40;;;;;;;18.88;2.35;;;;;;;8.13;100.00;98250.78;5452230;26;20005;-94
2024/04/09 00:23:06;;;;;;;15.02;1.73;;;;;;;8.06;100.00;98229.09;5452327;26;19995;-96
2024/04/09 00:25:31;;;;;;;12.45;1.95;;;;;;;8.11;100.00;98242.38;5452142;26;20013;-96
2024/04/09 00:27:59;;;;;;;11.65;1.52;;;;;;;8.19;100.00;98238.38;5452174;26;20006;-96
2024/04/09 00:30:25;;;;;;;6.57;1.00;;;;;;;8.11;100.00;98215.88;5451980;26;20010;-96
2024/04/09 00:32:51;;;;;;;8.38;1.38;;;;;;;8.19;100.00;98220.38;5452203;26;20390;-96
2024/04/09 00:35:23;;;;;;;6.93;1.25;;;;;;;8.17;100.00;98215.38;5452148;26;20324;-95
2024/04/09 00:37:54;;;;;;;11.23;2.08;;;;;;;8.23;100.00;98196.88;5451871;26;20011;-95
2024/04/09 00:40:24;;;;;;;10.73;1.65;;;;;;;8.23;100.00;98203.78;5452042;26;20679;-96
2024/04/09 00:42:52;;;;;;;15.57;1.52;;;;;;;8.25;100.00;98204.47;5452034;26;20003;-96
2024/04/09 00:45:18;;;;;;;12.60;2.10;;;;;;;8.40;100.00;98210.91;5452190;26;20011;-96
2024/04/09 00:47:48;;;;;;;17.17;1.83;;;;;;;8.31;100.00;98193.66;5451685;26;20006;-96
2024/04/09 00:50:14;;;;;;;17.17;2.58;;;;;;;8.42;100.00;98203.09;5451965;26;20071;-95
2024/04/09 00:52:43;;;;;;;11.55;2.05;;;;;;;8.33;100.00;98194.34;5452971;26;20063;-95
2024/04/09 00:55:11;;;;;;;9.70;1.55;;;;;;;8.36;100.00;98188.94;5453090;26;19994;-96
2024/04/09 00:57:40;;;;;;;16.63;1.98;;;;;;;8.28;100.00;98173.38;5453202;26;20006;-96
2024/04/09 01:00:12;;;;;;;15.68;2.28;;;;;;;8.32;100.00;98172.16;5454305;26;20031;-96
2024/04/09 01:02:38;;;;;;;16.75;2.28;;;;;;;8.23;100.00;98160.09;5454295;26;19991;-96
2024/04/09 01:05:05;;;;;;;14.88;2.35;;;;;;;8.37;100.00;98141.75;5453722;26;19995;-96
2024/04/09 01:07:32;;;;;;;19.80;3.67;;;;;;;8.33;100.00;98141.19;5453542;26;20363;-96
2024/04/09 01:09:58;;;;;;;20.30;2.15;;;;;;;8.32;100.00;98139.56;5456974;26;19999;-96
2024/04/09 01:12:24;;;;;;;21.85;2.42;;;;;;;8.35;100.00;98153.91;5457410;26;20010;-96
2024/04/09 01:14:50;;;;;;;11.68;1.85;;;;;;;8.27;100.00;98140.91;5462427;26;19999;-96
2024/04/09 01:17:19;;;;;;;5.70;1.23;;;;;;;8.41;100.00;98143.13;5462963;26;20005;-96
2024/04/09 01:19:46;;;;;;;16.15;2.25;;;;;;;8.33;100.00;98130.09;5466561;26;19999;-96
2024/04/09 01:22:14;;;;;;;14.85;1.75;;;;;;;8.36;100.00;98124.69;5467613;26;20003;-96
2024/04/09 01:24:44;;;;;;;14.30;2.25;;;;;;;8.36;100.00;98122.13;5466894;26;20036;-96
2024/04/09 01:27:14;;;;;;;15.68;2.45;;;;;;;8.34;100.00;98124.03;5465605;26;20538;-96
2024/04/09 01:29:43;;;;;;;12.77;2.22;;;;;;;8.34;100.00;98121.47;5428252;26;22312;-96
2024/04/09 01:32:10;;;;;;;12.93;2.42;;;;;;;8.42;100.00;98121.63;5462975;26;20035;-96
2024/04/09 01:34:37;;;;;;;9.98;1.55;;;;;;;8.39;100.00;98116.72;5436443;26;19992;-96
2024/04/09 01:37:11;;;;;;;13.60;1.95;;;;;;;8.56;100.00;98136.69;5435208;26;19996;-96
2024/04/09 01:39:40;;;;;;;14.73;1.90;;;;;;;8.50;100.00;98098.63;5436074;26;20007;-96
2024/04/09 01:42:11;;;;;;;9.43;2.15;;;;;;;8.41;100.00;98111.47;5431125;26;20000;-96
2024/04/09 01:44:37;;;;;;;12.67;1.47;;;;;;;8.48;100.00;98112.56;5430778;26;20004;-96
2024/04/09 01:47:16;;;;;;;8.32;1.15;;;;;;;8.53;100.00;98113.81;5432740;26;19995;-96
2024/04/09 01:49:42;;;;;;;6.00;0.80;;;;;;;8.52;100.00;98130.19;5436014;26;20004;-96
2024/04/09 01:52:15;;;;;;;4.50;1.00;;;;;;;8.39;100.00;98109.03;5431445;26;20023;-96
2024/04/09 01:54:44;;;;;;;2.70;0.70;;;;;;;8.37;100.00;98116.03;5418744;26;20040;-96
2024/04/09 01:57:10;;;;;;;2.60;0.73;;;;;;;8.40;100.00;98133.00;5418796;26;19996;-96
2024/04/09 01:59:36;;;;;;;2.00;0.95;;;;;;;8.39;100.00;98137.28;5418338;26;20007;-96
2024/04/09 02:02:02;;;;;;;2.97;0.40;;;;;;;8.39;100.00;98132.16;5416962;26;20000;-96
2024/04/09 02:04:27;;;;;;;1.98;0.30;;;;;;;8.32;100.00;98125.91;5415483;26;20667;-95
2024/04/09 02:06:53;;;;;;;2.20;0.28;;;;;;;8.39;100.00;98139.88;5415321;26;20268;-96
2024/04/09 02:09:19;;;;;;;1.27;0.30;;;;;;;8.32;100.00;98137.00;5415391;26;19995;-95
2024/04/09 02:11:44;;;;;;;1.38;0.20;;;;;;;8.37;100.00;98144.31;5415971;26;20000;-96
2024/04/09 02:14:10;;;;;;;1.60;0.17;;;;;;;8.38;100.00;98143.38;5445744;26;20068;-96
2024/04/09 02:16:35;;;;;;;0.10;0.10;;;;;;;8.42;100.00;98141.38;5415485;26;20014;-95
2024/04/09 02:19:01;;;;;;;1.85;0.20;;;;;;;8.51;100.00;98153.44;5415418;26;20067;-96
2024/04/09 02:21:26;;;;;;;0.90;0.20;;;;;;;8.52;100.00;98160.22;5416328;26;20000;-96
2024/04/09 02:23:52;;;;;;;3.70;0.32;;;;;;;8.52;100.00;98155.06;5416178;26;20011;-95
2024/04/09 02:26:18;;;;;;;1.75;0.40;;;;;;;8.59;100.00;98155.38;5416529;26;20006;-96
2024/04/09 02:28:43;;;;;;;1.73;0.50;;;;;;;8.64;100.00;98154.03;5416371;26;20011;-96
2024/04/09 02:31:09;;;;;;;3.38;0.65;;;;;;;8.75;100.00;98176.22;5416539;26;19999;-96
2024/04/09 02:33:35;;;;;;;1.27;0.40;;;;;;;8.78;100.00;98192.22;5420133;26;20065;-96
2024/04/09 02:36:03;;;;;;;2.42;0.70;;;;;;;8.81;100.00;98190.34;5421898;26;20003;-96
2024/04/09 02:38:31;;;;;;;3.17;0.80;;;;;;;8.79;100.00;98187.91;5421210;26;19994;-96
2024/04/09 02:40:57;;;;;;;1.60;0.70;;;;;;;8.86;100.00;98194.13;5450707;26;20004;-96
2024/04/09 02:43:23;;;;;;;3.75;0.77;;;;;;;8.90;100.00;98204.97;5419472;26;20434;-96
2024/04/09 02:45:49;;;;;;;0.50;0.30;;;;;;;8.81;100.00;98226.34;5420297;26;19995;-96
2024/04/09 02:48:16;;;;;;;2.95;0.40;;;;;;;8.70;100.00;98235.78;5421790;26;20072;-96
2024/04/09 02:50:52;;;;;;;0.10;0.10;;;;;;;8.56;100.00;98247.25;5420539;26;20053;-96
2024/04/09 02:53:17;;;;;;;0.30;0.20;;;;;;;8.42;100.00;98252.72;5420057;26;20008;-95
2024/04/09 02:55:44;;;;;;;1.55;0.17;;;;;;;8.26;100.00;98276.28;5450592;26;19999;-96
2024/04/09 02:58:12;;;;;;;2.03;0.10;;;;;;;8.22;100.00;98271.50;5419411;26;20391;-96
2024/04/09 03:00:38;;;;;;;2.53;0.20;;;;;;;8.25;100.00;98299.56;5419566;26;20069;-96
2024/04/09 03:03:04;;;;;;;0.00;0.00;;;;;;;8.17;100.00;98309.63;5418497;26;20037;-96
2024/04/09 03:05:31;;;;;;;2.83;0.13;;;;;;;8.05;100.00;98327.69;5418441;26;19996;-96
2024/04/09 03:07:57;;;;;;;4.75;0.17;;;;;;;8.00;100.00;98327.25;5417985;26;19999;-96
2024/04/09 03:10:22;;;;;;;1.45;0.17;;;;;;;7.89;100.00;98338.34;5418006;26;20009;-95
2024/04/09 03:12:48;;;;;;;1.75;0.20;;;;;;;7.98;100.00;98351.44;5447838;26;20008;-96
2024/04/09 03:15:14;;;;;;;1.98;0.15;;;;;;;7.98;100.00;98371.97;5417765;26;19991;-96
2024/04/09 03:17:43;;;;;;;0.52;0.17;;;;;;;7.89;100.00;98369.19;5417662;26;20394;-95
2024/04/09 03:20:13;;;;;;;0.50;0.10;;;;;;;7.83;100.00;98390.22;5418030;26;19999;-96
2024/04/09 03:22:39;;;;;;;4.53;0.63;;;;;;;7.76;100.00;98390.84;5417995;26;19995;-95
2024/04/09 03:25:08;;;;;;;0.85;0.17;;;;;;;7.90;100.00;98426.50;5417987;26;20090;-96
2024/04/09 03:27:34;;;;;;;1.40;0.20;;;;;;;7.87;100.00;98422.41;5418529;26;20007;-96
2024/04/09 03:30:00;;;;;;;0.28;0.10;;;;;;;7.86;100.00;98436.22;5417912;26;20003;-96
2024/04/09 03:32:27;;;;;;;1.58;0.20;;;;;;;7.82;100.00;98450.22;5417819;26;19996;-96
2024/04/09 03:34:53;;;;;;;3.78;0.28;;;;;;;7.77;100.00;98461.78;5417883;26;20021;-96
2024/04/09 03:37:18;;;;;;;0.57;0.10;;;;;;;7.75;100.00;98461.91;5448797;26;20547;-96
2024/04/09 03:39:44;;;;;;;1.17;0.20;;;;;;;7.80;100.00;98484.66;5421808;26;20000;-94
2024/04/09 03:42:09;;;;;;;0.20;0.10;;;;;;;7.75;100.00;98461.09;5448629;26;20433;-95
2024/04/09 03:44:35;;;;;;;0.80;0.20;;;;;;;7.82;100.00;98475.09;5418814;26;20011;-95
2024/04/09 03:47:07;;;;;;;2.38;0.20;;;;;;;7.89;100.00;98489.91;5419064;26;20010;-96
2024/04/09 03:49:37;;;;;;;0.85;0.25;;;;;;;7.79;100.00;98480.47;5420237;26;19995;-96
2024/04/09 03:52:05;;;;;;;0.50;0.30;;;;;;;7.79;100.00;98490.75;5420672;26;19999;-96
2024/04/09 03:54:31;;;;;;;2.22;0.73;;;;;;;7.77;100.00;98502.88;5419462;26;19999;-96
2024/04/09 03:57:03;;;;;;;3.95;0.32;;;;;;;7.81;100.00;98527.41;5421317;26;20000;-96
2024/04/09 03:59:31;;;;;;;1.88;0.30;;;;;;;7.76;100.00;98516.66;5421510;26;19999;-96
2024/04/09 04:01:57;;;;;;;4.85;0.40;;;;;;;7.74;100.00;98521.09;5423082;26;20008;-96
2024/04/09 04:04:23;;;;;;;0.85;0.20;;;;;;;7.73;100.00;98522.84;5421628;26;20002;-96
2024/04/09 04:06:49;;;;;;;3.45;0.73;;;;;;;7.69;100.00;98537.66;5421390;26;19999;-96
2024/04/09 04:09:14;;;;;;;1.95;0.57;;;;;;;7.68;100.00;98546.31;5422223;26;20007;-96
2024/04/09 04:11:40;;;;;;;3.35;0.75;;;;;;;7.67;100.00;98547.22;5424858;26;20065;-96
2024/04/09 04:14:06;;;;;;;5.93;1.65;;;;;;;7.77;100.00;98567.09;5424578;26;20000;-96
2024/04/09 04:16:32;;;;;;;3.97;0.88;;;;;;;7.61;100.00;98565.69;5423768;26;19996;-96
2024/04/09 04:18:58;;;;;;;4.65;1.08;;;;;;;7.62;100.00;98561.34;5423742;26;20090;-96
2024/04/09 04:21:27;;;;;;;7.13;1.10;;;;;;;7.60;100.00;98581.19;5453324;26;20416;-96
2024/04/09 04:23:55;;;;;;;7.22;1.23;;;;;;;7.63;100.00;98584.34;5428993;26;20460;-95
2024/04/09 04:26:23;;;;;;;6.50;1.45;;;;;;;7.71;100.00;98615.41;5424580;26;19999;-96
2024/04/09 04:28:50;;;;;;;11.25;1.95;;;;;;;7.58;100.00;98601.03;5424699;26;20088;-96
2024/04/09 04:31:19;;;;;;;7.68;2.33;;;;;;;7.56;100.00;98619.13;5423915;26;20007;-96
2024/04/09 04:33:45;;;;;;;7.28;3.20;;;;;;;7.50;100.00;98634.97;5423864;26;20000;-96
2024/04/09 04:36:12;;;;;;;8.95;2.78;;;;;;;7.65;100.00;98654.38;5422445;26;20519;-96
2024/04/09 04:38:40;;;;;;;7.93;2.22;;;;;;;7.57;100.00;98661.81;5421985;26;20000;-96
2024/04/09 04:41:07;;;;;;;5.93;1.95;;;;;;;7.50;100.00;98655.50;5419390;26;19999;-96
2024/04/09 04:43:33;;;;;;;5.00;2.00;;;;;;;7.57;100.00;98655.88;5422873;26;19996;-96
2024/04/09 04:46:00;;;;;;;5.70;1.70;;;;;;;7.66;100.00;98683.44;5424805;26;20006;-95
2024/04/09 04:48:27;;;;;;;5.38;1.20;;;;;;;7.52;100.00;98674.19;5426903;26;20019;-96
2024/04/09 04:50:53;;;;;;;1.48;0.70;;;;;;;7.51;100.00;98700.78;5425111;26;20010;-96
2024/04/09 04:53:19;;;;;;;2.72;0.30;;;;;;;7.54;100.00;98707.47;5422510;26;19995;-96
2024/04/09 04:55:46;;;;;;;1.20;0.40;;;;;;;7.50;100.00;98711.97;5425300;26;19995;-96
2024/04/09 04:58:12;;;;;;;1.05;0.32;;;;;;;7.58;100.00;98725.06;5423647;26;20300;-96
2024/04/09 05:00:39;;;;;;;1.67;0.32;;;;;;;7.47;100.00;98740.44;5420356;26;20123;-96
2024/04/09 05:03:05;;;;;;;2.97;0.30;;;;;;;7.44;100.00;98738.09;5421758;26;20000;-96
2024/04/09 05:05:30;;;;;;;1.15;0.30;;;;;;;7.43;100.00;98751.84;5421182;26;20011;-96
2024/04/09 05:07:57;;;;;;;4.57;0.32;;;;;;;7.40;100.00;98752.88;5420097;26;20010;-96
2024/04/09 05:10:24;;;;;;;1.83;0.30;;;;;;;7.38;100.00;98774.47;5421324;26;19999;-96
2024/04/09 05:12:51;;;;;;;3.50;0.50;;;;;;;7.30;100.00;98777.56;5449088;26;20486;-96
2024/04/09 05:15:18;;;;;;;3.75;0.35;;;;;;;7.38;100.00;98800.13;5418283;26;20401;-95
2024/04/09 05:17:44;;;;;;;4.03;0.47;;;;;;;7.27;100.00;98794.00;5417052;26;19999;-96
2024/04/09 05:20:11;;;;;;;4.05;0.60;;;;;;;7.17;100.00;98816.09;5416890;26;20011;-96
2024/04/09 05:22:41;;;;;;;1.98;0.60;;;;;;;7.20;100.00;98851.81;5416737;26;19999;-95
2024/04/09 05:25:08;;;;;;;4.32;0.43;;;;;;;7.21;100.00;98845.75;5416621;26;20524;-95
2024/04/09 05:27:34;;;;;;;2.88;0.52;;;;;;;7.19;100.00;98860.41;5416524;26;19996;-96
2024/04/09 05:30:00;;;;;;;3.88;0.47;;;;;;;7.08;100.00;98858.59;5416681;26;20006;-96
2024/04/09 05:32:26;;;;;;;2.75;0.70;;;;;;;6.94;100.00;98873.28;5417132;26;20330;-96
2024/04/09 05:34:52;;;;;;;1.55;0.30;;;;;;;6.90;100.00;98892.38;5416262;26;20011;-96
2024/04/09 05:37:17;;;;;;;0.50;0.15;;;;;;;6.86;100.00;98919.97;5415727;26;20004;-96
2024/04/09 05:39:45;;;;;;;0.88;0.20;;;;;;;6.74;100.00;98929.28;5415174;26;20345;-95
2024/04/09 05:42:10;;;;;;;0.77;0.10;;;;;;;6.56;100.00;98915.09;5445270;26;19999;-95
2024/04/09 05:44:36;;;;;;;1.45;0.20;;;;;;;6.57;100.00;98938.09;5415085;26;20453;-96
2024/04/09 05:47:01;;;;;;;1.85;0.20;;;;;;;6.47;100.00;98975.50;5414906;26;20007;-96
2024/04/09 05:49:28;;;;;;;1.25;0.10;;;;;;;6.45;100.00;98956.00;5414774;26;19995;-96
2024/04/09 05:51:53;;;;;;;0.30;0.10;;;;;;;6.45;100.00;98967.06;5414753;26;19995;-96
2024/04/09 05:54:19;;;;;;;0.38;0.10;;;;;;;6.35;100.00;98982.22;5444631;26;20040;-95
2024/04/09 05:56:48;;;;;;;0.30;0.10;;;;;;;6.30;100.00;98962.94;5414349;26;20027;-95
2024/04/09 05:59:14;;;;;;;1.40;0.10;;;;;;;6.35;100.00;99007.84;5414924;26;20000;-95
2024/04/09 06:01:39;;;;;;;1.17;0.10;;;;;;;6.42;100.00;99006.53;5414453;26;20007;-94
2024/04/09 06:04:05;;;;;;;0.82;0.22;;;;;;;6.46;100.00;99001.19;5414431;26;20435;-95
2024/04/09 06:06:30;;;;;;;0.52;0.10;;;;;;;6.33;100.00;99001.97;5417081;26;20016;-94
2024/04/09 06:08:56;;;;;;;0.93;0.10;;;;;;;6.42;100.00;99027.03;5418011;26;20034;-95
2024/04/09 06:11:21;;;;;;;3.00;0.20;;;;;;;6.36;100.00;99029.16;5417869;26;20477;-94
2024/04/09 06:13:47;;;;;;;1.65;0.22;;;;;;;6.38;100.00;99025.56;5417936;26;20011;-95
2024/04/09 06:16:13;;;;;;;1.60;0.20;;;;;;;6.31;100.00;99024.31;5447821;26;20003;-95
2024/04/09 06:18:38;;;;;;;0.73;0.20;;;;;;;6.46;100.00;99047.34;5417750;26;20430;-94
2024/04/09 06:21:04;;;;;;;3.45;0.40;;;;;;;6.59;100.00;99073.84;5417800;26;20073;-94
2024/04/09 06:23:30;;;;;;;3.20;0.22;;;;;;;6.64;100.00;99064.94;5419049;26;20000;-95
2024/04/09 06:25:57;;;;;;;0.88;0.25;;;;;;;6.70;100.00;99076.56;5418786;26;20007;-96
2024/04/09 06:28:23;;;;;;;1.17;0.40;;;;;;;6.81;100.00;99099.78;5417917;26;20003;-95
2024/04/09 06:30:48;;;;;;;2.35;0.20;;;;;;;6.73;100.00;99102.03;5418424;26;20065;-96
2024/04/09 06:33:13;;;;;;;0.57;0.22;;;;;;;6.76;100.00;99095.88;5418305;26;20089;-96
2024/04/09 06:35:39;;;;;;;1.33;0.22;;;;;;;6.74;100.00;99107.97;5418347;26;20072;-95
2024/04/09 06:38:05;;;;;;;2.08;0.20;;;;;;;6.76;100.00;99116.38;5418198;26;20441;-96
2024/04/09 06:40:31;;;;;;;0.77;0.30;;;;;;;6.69;100.00;99122.81;5418519;26;19996;-96
2024/04/09 06:42:57;;;;;;;0.75;0.25;;;;;;;6.63;100.00;99124.84;5418472;26;20014;-94
2024/04/09 06:45:23;;;;;;;0.52;0.20;;;;;;;6.69;100.00;99156.16;5418348;26;20007;-96
2024/04/09 06:47:48;;;;;;;4.97;0.32;;;;;;;6.73;100.00;99176.38;5417616;26;19995;-96
2024/04/09 06:50:15;;;;;;;3.30;0.75;;;;;;;6.51;100.00;99163.22;5418225;26;19995;-94
2024/04/09 06:52:41;;;;;;;0.80;0.20;;;;;;;6.60;100.00;99173.72;5417681;26;19999;-94
2024/04/09 06:55:06;;;;;;;0.10;0.10;;;;;;;6.41;100.00;99179.16;5417840;26;20002;-95
2024/04/09 06:57:31;;;;;;;1.30;0.17;;;;;;;6.49;100.00;99206.09;5417734;26;19995;-95
2024/04/09 06:59:57;;;;;;;3.17;0.20;;;;;;;6.43;100.00;99200.38;5446933;26;19996;-94
2024/04/09 07:02:22;;;;;;;2.25;0.10;;;;;;;6.24;100.00;99204.97;5447680;26;19995;-94
2024/04/09 07:04:48;;;;;;;1.42;0.30;;;;;;;6.31;100.00;99218.25;5418349;26;19996;-94
2024/04/09 07:07:14;;;;;;;1.25;0.28;;;;;;;6.18;100.00;99257.41;5418094;26;20328;-96
2024/04/09 07:09:39;;;;;;;0.22;0.15;;;;;;;6.18;100.00;99254.00;5418082;26;20026;-95
2024/04/09 07:12:05;;;;;;;0.93;0.20;;;;;;;6.21;100.00;99271.75;5417682;26;20031;-96
2024/04/09 07:14:30;;;;;;;0.88;0.20;;;;;;;6.19;100.00;99273.59;5417050;26;20015;-94
2024/04/09 07:16:58;;;;;;;1.10;0.10;;;;;;;6.17;100.00;99278.81;5416388;26;20015;-96
2024/04/09 07:19:24;;;;;;;2.00;0.20;;;;;;;6.13;100.00;99286.75;5415903;26;20014;-96
2024/04/09 07:21:50;;;;;;;1.40;0.30;;;;;;;6.16;100.00;99294.25;5415751;26;20004;-92
2024/04/09 07:24:15;;;;;;;2.63;0.22;;;;;;;6.13;100.00;99297.81;5417647;26;20015;-93
2024/04/09 07:26:40;;;;;;;2.63;0.35;;;;;;;6.19;100.00;99291.50;5416151;26;20003;-93
2024/04/09 07:29:06;;;;;;;0.98;0.20;;;;;;;6.25;100.00;99288.63;5415279;26;20011;-92
2024/04/09 07:31:31;;;;;;;2.58;0.52;;;;;;;6.32;100.00;99295.03;5418193;26;19996;-93
2024/04/09 07:33:57;;;;;;;2.15;0.30;;;;;;;6.45;100.00;99296.88;5414946;26;20004;-91
2024/04/09 07:36:22;;;;;;;2.38;0.30;;;;;;;6.55;100.00;99308.22;5414944;26;20441;-93
2024/04/09 07:38:48;;;;;;;2.50;0.20;;;;;;;6.60;100.00;99306.22;5415249;26;20074;-94
2024/04/09 07:41:13;;;;;;;2.40;0.40;;;;;;;6.64;100.00;99300.00;5415583;26;19999;-92
2024/04/09 07:43:39;;;;;;;0.50;0.20;;;;;;;6.73;100.00;99327.66;5415627;26;19992;-92
2024/04/09 07:46:04;;;;;;;0.68;0.40;;;;;;;6.69;100.00;99321.06;5415301;26;19995;-91
2024/04/09 07:48:30;;;;;;;2.67;0.40;;;;;;;6.75;100.00;99330.94;5413915;26;20709;-91
2024/04/09 07:50:56;;;;;;;3.95;0.82;;;;;;;6.78;100.00;99333.34;5415546;26;20468;-91
2024/04/09 07:53:22;;;;;;;2.20;0.68;;;;;;;6.84;100.00;99335.53;5417074;26;19996;-94
2024/04/09 07:55:47;;;;;;;4.05;0.45;;;;;;;6.97;100.00;99337.34;5414983;26;19999;-90
2024/04/09 07:58:13;;;;;;;4.15;0.60;;;;;;;7.09;100.00;99362.28;5414677;26;20011;-90
2024/04/09 08:00:39;;;;;;;5.78;0.82;;;;;;;7.10;100.00;99363.13;5414714;26;20460;-91
2024/04/09 08:03:05;;;;;;;1.88;0.63;;;;;;;7.23;100.00;99381.97;5415391;26;20011;-91
2024/04/09 08:05:30;;;;;;;5.65;0.93;;;;;;;7.21;100.00;99387.19;5411650;26;20000;-91
2024/04/09 08:07:56;;;;;;;2.05;0.30;;;;;;;7.10;100.00;99381.09;5413825;26;20014;-91
2024/04/09 08:10:22;;;;;;;1.33;0.30;;;;;;;7.19;100.00;99396.72;5414554;26;20438;-90
2024/04/09 08:12:49;;;;;;;0.93;0.35;;;;;;;7.27;100.00;99404.00;5416462;26;20226;-92
2024/04/09 08:15:19;;;;;;;2.00;0.20;;;;;;;7.26;100.00;99410.03;5414581;26;20374;-96
2024/04/09 08:17:47;;;;;;;2.65;0.57;;;;;;;7.26;100.00;99408.28;5416828;26;19999;-96
2024/04/09 08:20:14;;;;;;;0.32;0.22;;;;;;;7.47;100.00;99425.88;5414581;26;20011;-96
2024/04/09 08:22:39;;;;;;;2.17;0.30;;;;;;;7.45;100.00;99443.94;5418132;26;19996;-96
2024/04/09 08:25:07;;;;;;;2.85;0.50;;;;;;;7.58;100.00;99432.91;5415790;26;20449;-95
2024/04/09 08:27:40;;;;;;;1.77;0.30;;;;;;;7.70;100.00;99442.44;5415293;26;20028;-95
2024/04/09 08:30:18;;;;;;;2.35;0.77;;;;;;;7.87;100.00;99460.19;5414915;26;20064;-95
2024/04/09 08:32:46;;;;;;;1.27;0.30;;;;;;;7.83;100.00;99463.06;5389423;26;20011;-96
2024/04/09 08:35:13;;;;;;;3.47;0.40;;;;;;;8.08;100.00;99488.88;5413325;26;20012;-93
2024/04/09 08:37:41;;;;;;;3.05;0.30;;;;;;;8.14;100.00;99493.66;5413056;26;20011;-91
2024/04/09 08:40:09;;;;;;;0.63;0.22;;;;;;;8.22;100.00;99482.88;5416246;26;20000;-92
2024/04/09 08:42:38;;;;;;;0.65;0.20;;;;;;;8.35;100.00;99495.78;5414358;26;20030;-92
2024/04/09 08:45:08;;;;;;;2.70;0.98;;;;;;;8.71;100.00;99502.94;5415510;26;20499;-93
2024/04/09 08:47:34;;;;;;;1.63;0.20;;;;;;;8.92;100.00;99503.25;5415490;26;20007;-93
2024/04/09 08:49:59;;;;;;;0.73;0.20;;;;;;;9.18;100.00;99505.88;5415363;26;20077;-95
2024/04/09 08:52:26;;;;;;;2.25;0.47;;;;;;;9.16;100.00;99518.03;5414763;26;20002;-92
2024/04/09 08:54:51;;;;;;;2.80;0.40;;;;;;;9.39;100.00;99513.94;5413349;26;20003;-91
2024/04/09 08:57:19;;;;;;;4.18;0.60;;;;;;;9.49;100.00;99539.91;5414274;26;20407;-90
2024/04/09 08:59:44;;;;;;;2.55;0.32;;;;;;;10.44;100.00;99512.69;5414044;26;20002;-95
2024/04/09 09:02:13;;;;;;;1.55;0.22;;;;;;;11.14;100.00;99542.84;5416244;26;20007;-94
2024/04/09 09:04:39;;;;;;;1.45;0.40;;;;;;;9.90;100.00;99546.53;5413616;26;20003;-91
2024/04/09 09:07:15;;;;;;;0.63;0.20;;;;;;;10.31;100.00;99563.50;5415689;26;19995;-93
2024/04/09 09:09:41;;;;;;;2.72;0.38;;;;;;;10.82;100.00;99573.59;5415285;26;20011;-91
2024/04/09 09:12:07;;;;;;;2.78;0.50;;;;;;;10.73;100.00;99592.34;5414368;26;20015;-90
2024/04/09 09:14:33;;;;;;;1.48;0.52;;;;;;;11.77;100.00;99584.66;5415623;26;20027;-90
2024/04/09 09:17:05;;;;;;;1.70;0.40;;;;;;;10.87;100.00;99592.97;5414725;26;20422;-90
2024/04/09 09:19:33;;;;;;;5.60;0.93;;;;;;;11.86;100.00;99596.88;5414812;26;20000;-90
2024/04/09 09:22:10;;;;;;;3.38;0.63;;;;;;;10.70;100.00;99604.53;5414874;26;20006;-91
2024/04/09 09:24:37;;;;;;;3.03;0.52;;;;;;;10.32;100.00;99620.13;5413687;26;19999;-91
2024/04/09 09:27:05;;;;;;;3.38;0.80;;;;;;;10.21;100.00;99635.47;5393431;26;20004;-89
2024/04/09 09:29:32;;;;;;;3.47;1.33;;;;;;;10.05;100.00;99635.72;5379591;26;20033;-90
2024/04/09 09:32:02;;;;;;;4.65;0.90;;;;;;;9.79;100.00;99635.72;5375193;26;19992;-89
2024/04/09 09:34:33;;;;;;;7.45;1.73;;;;;;;9.73;100.00;99633.56;5376463;26;20004;-89
2024/04/09 09:37:00;;;;;;;2.92;0.85;;;;;;;9.75;100.00;99651.47;5378281;26;19996;-89
2024/04/09 09:39:32;;;;;;;5.97;0.88;;;;;;;9.64;100.00;99660.75;5379238;26;19996;-89
2024/04/09 09:41:58;;;;;;;3.83;1.08;;;;;;;9.96;100.00;99678.41;5380306;26;20028;-89
2024/04/09 09:44:28;;;;;;;6.03;1.10;;;;;;;10.64;100.00;99679.81;5378497;26;20000;-90
2024/04/09 09:46:56;;;;;;;5.38;1.65;;;;;;;10.64;100.00;99674.66;5379709;26;20001;-88
2024/04/09 09:49:24;;;;;;;10.15;1.15;;;;;;;10.71;100.00;99685.38;5377593;26;20011;-88
2024/04/09 09:51:52;;;;;;;3.78;1.00;;;;;;;11.31;96.27;99689.69;5379981;26;20010;-90
2024/04/09 09:54:17;;;;;;;4.47;1.17;;;;;;;11.11;98.90;99693.69;5379779;26;20509;-89
2024/04/09 09:56:48;;;;;;;17.02;1.83;;;;;;;10.51;98.00;99704.81;5380068;26;19996;-89
2024/04/09 09:59:17;;;;;;;6.10;1.90;;;;;;;11.23;93.28;99714.41;5378154;26;19996;-89
2024/04/09 10:01:48;;;;;;;7.47;1.98;;;;;;;12.10;89.08;99714.97;5377813;26;20043;-89
2024/04/09 10:04:23;;;;;;;4.37;1.43;;;;;;;12.04;85.64;99712.81;5379840;26;20004;-90
2024/04/09 10:07:03;;;;;;;10.30;1.90;;;;;;;11.02;92.40;99730.53;5379872;26;20012;-90
2024/04/09 10:09:49;;;;;;;9.00;1.40;;;;;;;11.82;89.83;99729.91;5379951;26;20021;-90
2024/04/09 10:12:28;;;;;;;4.03;1.23;;;;;;;11.64;90.80;99741.59;5379554;26;20001;-93
2024/04/09 10:15:05;;;;;;;5.57;2.78;;;;;;;11.78;83.60;99744.00;5379153;26;20350;-91
2024/04/09 10:17:53;;;;;;;13.23;1.98;;;;;;;11.33;84.34;99741.22;5379647;26;19996;-90
2024/04/09 10:20:31;;;;;;;9.05;1.83;;;;;;;11.94;84.98;99767.81;5379766;26;20003;-91
2024/04/09 10:23:01;;;;;;;9.80;1.65;;;;;;;12.15;77.82;99783.50;5378025;26;20071;-91
2024/04/09 10:25:38;;;;;;;6.10;2.03;;;;;;;11.35;79.54;99778.13;5379832;26;20375;-91
2024/04/09 10:28:07;;;;;;;5.88;1.60;;;;;;;11.31;83.20;99794.75;5377885;26;20429;-90
2024/04/09 10:30:34;;;;;;;7.05;1.40;;;;;;;11.19;81.06;99803.38;5380022;26;20438;-91
2024/04/09 10:33:06;;;;;;;11.65;2.05;;;;;;;11.56;80.36;99801.63;5380035;26;20004;-91
2024/04/09 10:35:32;;;;;;;8.68;1.88;;;;;;;11.52;79.64;99821.66;5379682;26;20052;-91
2024/04/09 10:38:04;;;;;;;8.25;2.10;;;;;;;11.68;82.98;99821.41;5377668;26;20028;-92
2024/04/09 10:40:31;;;;;;;11.75;3.72;;;;;;;11.59;81.05;99822.06;5377842;26;20008;-91
2024/04/09 10:42:58;;;;;;;6.70;1.63;;;;;;;11.08;80.14;99837.72;5377839;26;19997;-93
2024/04/09 10:45:24;;;;;;;7.53;2.58;;;;;;;11.34;80.73;99849.66;5379091;26;20015;-91
2024/04/09 10:47:49;;;;;;;7.72;2.10;;;;;;;11.32;77.08;99840.34;5378076;26;20521;-92
2024/04/09 10:50:15;;;;;;;10.13;2.35;;;;;;;10.86;77.54;99854.69;5379787;26;20000;-91
2024/04/09 10:52:41;;;;;;;7.30;2.03;;;;;;;11.15;80.60;99875.09;5381511;26;20000;-91
2024/04/09 10:55:14;;;;;;;9.75;2.00;;;;;;;11.24;81.17;99873.63;5381676;26;20375;-91
2024/04/09 10:57:40;;;;;;;8.88;1.80;;;;;;;11.15;80.61;99893.19;5383053;26;20000;-92
2024/04/09 11:00:10;;;;;;;11.23;1.90;;;;;;;10.90;78.92;99902.59;5380920;26;20073;-90
2024/04/09 11:02:37;;;;;;;9.13;1.95;;;;;;;11.01;78.37;99914.78;5383356;26;20033;-91
2024/04/09 11:05:04;;;;;;;7.07;1.90;;;;;;;11.27;80.15;99884.59;5381240;26;19996;-90
2024/04/09 11:07:32;;;;;;;4.97;1.85;;;;;;;11.14;78.67;99909.59;5381161;26;20000;-91
2024/04/09 11:09:59;;;;;;;8.98;2.22;;;;;;;11.21;75.95;99915.19;5383193;26;19996;-92
2024/04/09 11:12:24;;;;;;;9.07;2.25;;;;;;;10.89;78.53;99933.66;5382733;26;20299;-92
2024/04/09 11:14:50;;;;;;;7.78;2.28;;;;;;;10.68;81.47;99935.91;5383016;26;20011;-91
2024/04/09 11:17:17;;;;;;;9.52;1.95;;;;;;;10.92;78.89;99915.38;5380910;26;20000;-91
2024/04/09 11:19:42;;;;;;;9.73;1.98;;;;;;;11.41;75.86;99952.56;5380882;26;19996;-91
2024/04/09 11:22:08;;;;;;;9.57;2.17;;;;;;;11.24;74.83;99930.47;5383032;26;20003;-90
2024/04/09 11:24:36;;;;;;;8.10;2.03;;;;;;;11.50;74.25;99968.25;5381130;26;20323;-92
2024/04/09 11:27:02;;;;;;;4.80;1.55;;;;;;;11.98;72.40;99958.03;5382467;26;20047;-91
2024/04/09 11:29:28;;;;;;;7.68;1.92;;;;;;;11.89;71.42;99968.22;5382244;26;20012;-91
2024/04/09 11:31:54;;;;;;;9.95;1.55;;;;;;;12.11;69.28;99970.09;5380996;26;20073;-91